sensor_id;sensor_type;location;lat;lon;timestamp;temperature;humidity
71523;HTU21D;59343;51.102;5.884;2023-04-24T00:01:52;11.84;73.30
71523;HTU21D;59343;51.102;5.884;2023-04-24T00:04:18;11.79;73.44
71523;HTU21D;59343;51.102;5.884;2023-04-24T00:06:44;11.81;73.28
71523;HTU21D;59343;51.102;5.884;2023-04-24T00:09:15;11.76;73.39
71523;HTU21D;59343;51.102;5.884;2023-04-24T00:11:41;11.74;73.57
71523;HTU21D;59343;51.102;5.884;2023-04-24T00:14:07;11.71;73.57
71523;HTU21D;59343;51.102;5.884;2023-04-24T00:16:33;11.75;73.61
71523;HTU21D;59343;51.102;5.884;2023-04-24T00:18:59;11.75;73.39
71523;HTU21D;59343;51.102;5.884;2023-04-24T00:21:26;11.72;73.66
71523;HTU21D;59343;51.102;5.884;2023-04-24T00:23:53;11.72;73.64
71523;HTU21D;59343;51.102;5.884;2023-04-24T00:26:19;11.68;73.57
71523;HTU21D;59343;51.102;5.884;2023-04-24T00:28:45;11.62;73.82
71523;HTU21D;59343;51.102;5.884;2023-04-24T00:31:12;11.64;73.95
71523;HTU21D;59343;51.102;5.884;2023-04-24T00:33:38;11.67;73.99
71523;HTU21D;59343;51.102;5.884;2023-04-24T00:36:04;11.67;74.02
71523;HTU21D;59343;51.102;5.884;2023-04-24T00:38:30;11.62;74.09
71523;HTU21D;59343;51.102;5.884;2023-04-24T00:40:56;11.63;73.93
71523;HTU21D;59343;51.102;5.884;2023-04-24T00:43:22;11.58;74.06
71523;HTU21D;59343;51.102;5.884;2023-04-24T00:45:48;11.52;74.28
71523;HTU21D;59343;51.102;5.884;2023-04-24T00:48:14;11.51;74.64
71523;HTU21D;59343;51.102;5.884;2023-04-24T00:50:40;11.52;74.67
71523;HTU21D;59343;51.102;5.884;2023-04-24T00:53:06;11.51;74.76
71523;HTU21D;59343;51.102;5.884;2023-04-24T00:55:32;11.55;74.74
71523;HTU21D;59343;51.102;5.884;2023-04-24T00:57:58;11.56;74.79
71523;HTU21D;59343;51.102;5.884;2023-04-24T01:00:27;11.56;74.69
71523;HTU21D;59343;51.102;5.884;2023-04-24T01:02:55;11.56;74.88
71523;HTU21D;59343;51.102;5.884;2023-04-24T01:05:22;11.57;74.92
71523;HTU21D;59343;51.102;5.884;2023-04-24T01:07:48;11.55;74.81
71523;HTU21D;59343;51.102;5.884;2023-04-24T01:10:15;11.53;74.92
71523;HTU21D;59343;51.102;5.884;2023-04-24T01:12:45;11.51;75.04
71523;HTU21D;59343;51.102;5.884;2023-04-24T01:15:12;11.51;74.99
71523;HTU21D;59343;51.102;5.884;2023-04-24T01:17:38;11.49;75.08
71523;HTU21D;59343;51.102;5.884;2023-04-24T01:20:05;11.51;75.11
71523;HTU21D;59343;51.102;5.884;2023-04-24T01:22:33;11.54;74.88
71523;HTU21D;59343;51.102;5.884;2023-04-24T01:25:00;11.52;75.00
71523;HTU21D;59343;51.102;5.884;2023-04-24T01:27:29;11.51;74.99
71523;HTU21D;59343;51.102;5.884;2023-04-24T01:29:56;11.49;74.98
71523;HTU21D;59343;51.102;5.884;2023-04-24T01:32:23;11.49;75.04
71523;HTU21D;59343;51.102;5.884;2023-04-24T01:34:50;11.44;75.15
71523;HTU21D;59343;51.102;5.884;2023-04-24T01:37:17;11.46;75.31
71523;HTU21D;59343;51.102;5.884;2023-04-24T01:39:43;11.53;75.20
71523;HTU21D;59343;51.102;5.884;2023-04-24T01:42:10;11.49;75.19
71523;HTU21D;59343;51.102;5.884;2023-04-24T01:44:36;11.47;75.22
71523;HTU21D;59343;51.102;5.884;2023-04-24T01:47:03;11.45;75.41
71523;HTU21D;59343;51.102;5.884;2023-04-24T01:49:29;11.46;75.54
71523;HTU21D;59343;51.102;5.884;2023-04-24T01:51:55;11.53;75.28
71523;HTU21D;59343;51.102;5.884;2023-04-24T01:54:21;11.44;75.31
71523;HTU21D;59343;51.102;5.884;2023-04-24T01:56:48;11.42;75.36
71523;HTU21D;59343;51.102;5.884;2023-04-24T01:59:17;11.41;75.46
71523;HTU21D;59343;51.102;5.884;2023-04-24T02:01:43;11.38;75.69
71523;HTU21D;59343;51.102;5.884;2023-04-24T02:04:09;11.37;75.73
71523;HTU21D;59343;51.102;5.884;2023-04-24T02:06:35;11.37;75.87
71523;HTU21D;59343;51.102;5.884;2023-04-24T02:09:02;11.37;75.87
71523;HTU21D;59343;51.102;5.884;2023-04-24T02:11:29;11.39;75.86
71523;HTU21D;59343;51.102;5.884;2023-04-24T02:13:57;11.37;75.90
71523;HTU21D;59343;51.102;5.884;2023-04-24T02:16:23;11.37;75.90
71523;HTU21D;59343;51.102;5.884;2023-04-24T02:18:49;11.38;75.89
71523;HTU21D;59343;51.102;5.884;2023-04-24T02:21:16;11.36;75.95
71523;HTU21D;59343;51.102;5.884;2023-04-24T02:23:42;11.42;75.88
71523;HTU21D;59343;51.102;5.884;2023-04-24T02:26:09;11.37;75.76
71523;HTU21D;59343;51.102;5.884;2023-04-24T02:28:35;11.34;75.91
71523;HTU21D;59343;51.102;5.884;2023-04-24T02:31:04;11.33;76.04
71523;HTU21D;59343;51.102;5.884;2023-04-24T02:33:31;11.33;76.08
71523;HTU21D;59343;51.102;5.884;2023-04-24T02:35:58;11.37;76.02
71523;HTU21D;59343;51.102;5.884;2023-04-24T02:38:24;11.37;75.94
71523;HTU21D;59343;51.102;5.884;2023-04-24T02:40:49;11.39;75.86
71523;HTU21D;59343;51.102;5.884;2023-04-24T02:43:18;11.38;75.85
71523;HTU21D;59343;51.102;5.884;2023-04-24T02:45:44;11.36;75.92
71523;HTU21D;59343;51.102;5.884;2023-04-24T02:48:10;11.36;75.83
71523;HTU21D;59343;51.102;5.884;2023-04-24T02:50:36;11.33;75.89
71523;HTU21D;59343;51.102;5.884;2023-04-24T02:53:02;11.34;76.02
71523;HTU21D;59343;51.102;5.884;2023-04-24T02:55:29;11.31;76.25
71523;HTU21D;59343;51.102;5.884;2023-04-24T02:57:57;11.29;76.47
71523;HTU21D;59343;51.102;5.884;2023-04-24T03:00:23;11.26;76.30
71523;HTU21D;59343;51.102;5.884;2023-04-24T03:02:50;11.23;76.66
71523;HTU21D;59343;51.102;5.884;2023-04-24T03:05:16;11.23;76.57
71523;HTU21D;59343;51.102;5.884;2023-04-24T03:07:45;11.13;76.88
71523;HTU21D;59343;51.102;5.884;2023-04-24T03:10:11;11.10;76.92
71523;HTU21D;59343;51.102;5.884;2023-04-24T03:12:37;11.09;77.05
71523;HTU21D;59343;51.102;5.884;2023-04-24T03:15:03;11.10;77.09
71523;HTU21D;59343;51.102;5.884;2023-04-24T03:17:30;11.11;76.93
71523;HTU21D;59343;51.102;5.884;2023-04-24T03:19:56;11.10;76.87
71523;HTU21D;59343;51.102;5.884;2023-04-24T03:22:22;11.11;76.82
71523;HTU21D;59343;51.102;5.884;2023-04-24T03:24:49;11.08;76.54
71523;HTU21D;59343;51.102;5.884;2023-04-24T03:27:17;11.08;76.59
71523;HTU21D;59343;51.102;5.884;2023-04-24T03:29:50;11.04;76.55
71523;HTU21D;59343;51.102;5.884;2023-04-24T03:32:28;11.04;76.36
71523;HTU21D;59343;51.102;5.884;2023-04-24T03:34:54;11.02;76.47
71523;HTU21D;59343;51.102;5.884;2023-04-24T03:37:20;11.05;76.41
71523;HTU21D;59343;51.102;5.884;2023-04-24T03:40:07;11.02;76.25
71523;HTU21D;59343;51.102;5.884;2023-04-24T03:42:35;11.01;76.37
71523;HTU21D;59343;51.102;5.884;2023-04-24T03:45:01;10.96;76.62
71523;HTU21D;59343;51.102;5.884;2023-04-24T03:47:32;10.96;76.58
71523;HTU21D;59343;51.102;5.884;2023-04-24T03:50:01;10.95;76.74
71523;HTU21D;59343;51.102;5.884;2023-04-24T03:52:27;10.87;76.95
71523;HTU21D;59343;51.102;5.884;2023-04-24T03:54:54;10.82;77.60
71523;HTU21D;59343;51.102;5.884;2023-04-24T03:57:21;10.79;78.01
71523;HTU21D;59343;51.102;5.884;2023-04-24T04:00:00;10.71;78.48
71523;HTU21D;59343;51.102;5.884;2023-04-24T04:02:40;10.67;79.07
71523;HTU21D;59343;51.102;5.884;2023-04-24T04:05:08;10.69;79.37
71523;HTU21D;59343;51.102;5.884;2023-04-24T04:07:34;10.65;79.59
71523;HTU21D;59343;51.102;5.884;2023-04-24T04:10:00;10.59;79.91
71523;HTU21D;59343;51.102;5.884;2023-04-24T04:12:26;10.56;80.20
71523;HTU21D;59343;51.102;5.884;2023-04-24T04:14:54;10.57;80.36
71523;HTU21D;59343;51.102;5.884;2023-04-24T04:17:21;10.55;80.42
71523;HTU21D;59343;51.102;5.884;2023-04-24T04:19:47;10.53;80.64
71523;HTU21D;59343;51.102;5.884;2023-04-24T04:22:13;10.50;81.07
71523;HTU21D;59343;51.102;5.884;2023-04-24T04:24:46;10.43;81.44
71523;HTU21D;59343;51.102;5.884;2023-04-24T04:27:13;10.42;81.38
71523;HTU21D;59343;51.102;5.884;2023-04-24T04:29:47;10.37;81.91
71523;HTU21D;59343;51.102;5.884;2023-04-24T04:32:15;10.35;81.93
71523;HTU21D;59343;51.102;5.884;2023-04-24T04:34:42;10.36;81.92
71523;HTU21D;59343;51.102;5.884;2023-04-24T04:37:11;10.34;81.70
71523;HTU21D;59343;51.102;5.884;2023-04-24T04:39:51;10.37;81.89
71523;HTU21D;59343;51.102;5.884;2023-04-24T04:42:22;10.38;81.83
71523;HTU21D;59343;51.102;5.884;2023-04-24T04:44:50;10.40;81.71
71523;HTU21D;59343;51.102;5.884;2023-04-24T04:47:21;10.38;81.55
71523;HTU21D;59343;51.102;5.884;2023-04-24T04:49:54;10.39;81.59
71523;HTU21D;59343;51.102;5.884;2023-04-24T04:52:23;10.43;81.52
71523;HTU21D;59343;51.102;5.884;2023-04-24T04:55:01;10.45;81.56
71523;HTU21D;59343;51.102;5.884;2023-04-24T04:57:46;10.48;81.72
71523;HTU21D;59343;51.102;5.884;2023-04-24T05:00:13;10.53;81.62
71523;HTU21D;59343;51.102;5.884;2023-04-24T05:02:46;10.57;81.65
71523;HTU21D;59343;51.102;5.884;2023-04-24T05:05:15;10.58;81.47
71523;HTU21D;59343;51.102;5.884;2023-04-24T05:07:44;10.52;81.56
71523;HTU21D;59343;51.102;5.884;2023-04-24T05:10:10;10.48;81.72
71523;HTU21D;59343;51.102;5.884;2023-04-24T05:12:39;10.48;82.03
71523;HTU21D;59343;51.102;5.884;2023-04-24T05:15:06;10.41;82.36
71523;HTU21D;59343;51.102;5.884;2023-04-24T05:17:33;10.38;82.45
71523;HTU21D;59343;51.102;5.884;2023-04-24T05:19:59;10.38;82.65
71523;HTU21D;59343;51.102;5.884;2023-04-24T05:22:25;10.31;82.83
71523;HTU21D;59343;51.102;5.884;2023-04-24T05:24:52;10.29;83.00
71523;HTU21D;59343;51.102;5.884;2023-04-24T05:27:35;10.30;83.18
71523;HTU21D;59343;51.102;5.884;2023-04-24T05:30:05;10.25;83.46
71523;HTU21D;59343;51.102;5.884;2023-04-24T05:32:32;10.22;83.78
71523;HTU21D;59343;51.102;5.884;2023-04-24T05:34:58;10.19;83.91
71523;HTU21D;59343;51.102;5.884;2023-04-24T05:37:25;10.16;83.93
71523;HTU21D;59343;51.102;5.884;2023-04-24T05:39:51;10.16;84.00
71523;HTU21D;59343;51.102;5.884;2023-04-24T05:42:17;10.12;84.28
71523;HTU21D;59343;51.102;5.884;2023-04-24T05:44:43;10.16;84.48
71523;HTU21D;59343;51.102;5.884;2023-04-24T14:35:17;15.02;54.65
71523;HTU21D;59343;51.102;5.884;2023-04-24T14:37:51;14.95;54.41
71523;HTU21D;59343;51.102;5.884;2023-04-24T14:40:42;15.00;55.36
71523;HTU21D;59343;51.102;5.884;2023-04-24T14:43:43;15.25;54.79
71523;HTU21D;59343;51.102;5.884;2023-04-24T15:01:05;15.37;51.83
71523;HTU21D;59343;51.102;5.884;2023-04-24T15:04:16;15.41;52.27
71523;HTU21D;59343;51.102;5.884;2023-04-24T15:07:19;15.49;51.56
71523;HTU21D;59343;51.102;5.884;2023-04-24T15:14:05;15.55;51.88
71523;HTU21D;59343;51.102;5.884;2023-04-24T15:17:22;15.45;51.78
71523;HTU21D;59343;51.102;5.884;2023-04-24T15:20:38;15.31;51.69
71523;HTU21D;59343;51.102;5.884;2023-04-24T15:23:55;15.16;52.21
71523;HTU21D;59343;51.102;5.884;2023-04-24T15:26:50;15.08;53.46
71523;HTU21D;59343;51.102;5.884;2023-04-24T15:29:41;15.02;54.35
71523;HTU21D;59343;51.102;5.884;2023-04-24T15:32:11;15.08;54.80
71523;HTU21D;59343;51.102;5.884;2023-04-24T15:34:40;15.06;54.83
71523;HTU21D;59343;51.102;5.884;2023-04-24T15:37:41;15.08;54.90
71523;HTU21D;59343;51.102;5.884;2023-04-24T15:40:35;15.19;54.19
71523;HTU21D;59343;51.102;5.884;2023-04-24T16:02:12;14.75;53.39
71523;HTU21D;59343;51.102;5.884;2023-04-24T16:05:17;14.74;53.90
71523;HTU21D;59343;51.102;5.884;2023-04-24T16:08:11;14.60;55.14
71523;HTU21D;59343;51.102;5.884;2023-04-24T16:14:55;14.52;56.60
71523;HTU21D;59343;51.102;5.884;2023-04-24T16:17:22;14.43;57.02
71523;HTU21D;59343;51.102;5.884;2023-04-24T16:19:54;14.42;57.62
71523;HTU21D;59343;51.102;5.884;2023-04-24T16:23:30;14.41;58.22
71523;HTU21D;59343;51.102;5.884;2023-04-24T16:26:45;14.32;58.17
71523;HTU21D;59343;51.102;5.884;2023-04-24T16:29:39;14.22;58.82
71523;HTU21D;59343;51.102;5.884;2023-04-24T16:32:34;14.14;59.35
71523;HTU21D;59343;51.102;5.884;2023-04-24T17:31:53;13.19;58.93
71523;HTU21D;59343;51.102;5.884;2023-04-24T17:34:29;13.19;58.70
71523;HTU21D;59343;51.102;5.884;2023-04-24T17:36:59;13.20;58.64
71523;HTU21D;59343;51.102;5.884;2023-04-24T17:48:22;13.05;59.10
71523;HTU21D;59343;51.102;5.884;2023-04-24T17:51:33;12.94;59.44
71523;HTU21D;59343;51.102;5.884;2023-04-24T17:58:15;12.90;60.01
